MSC Sinfonia — H8XH — position and weather

sailwx.info

Track history (hours):
 
Tides and Currents Weather Stations Pressure Air Temp Water Temp Dewpoint Dewpoint Depression Visibility Wind Speed Wind Dir Waves Ship Positions

MSC Sinfonia

Last reported at 2017-Feb-24 07:32 UTC. Time now 2017-Feb-24 08:20 UTC.
Position S 29°52' E 031°02'.

Length 251 m; draft 6.8 m.

Type: Passenger vessel. MMSI: 356715971.

Date/timePositionNaut miles runAvg speedWind from/ knotsBaromVisibWave heightAir tempDewpointWater temp
2017-Feb-24 07:32S 29°52' E 031°02'0 0.0
2017-Feb-24 06:32S 29°52' E 031°02'0 0.0
2017-Feb-24 05:32S 29°52' E 031°02'0 0.0
2017-Feb-24 04:32S 29°52' E 031°02'0 0.0
2017-Feb-24 03:32S 29°52' E 031°02'3 3.1
2017-Feb-24 02:34S 29°51' E 031°05'10 9.5
2017-Feb-24 01:34S 29°48' E 031°16'1111.2
2017-Feb-24 00:34S 29°42' E 031°26'1312.9
2017-Feb-23 23:34S 29°33' E 031°36'1312.7
2017-Feb-23 22:33S 29°24' E 031°47'  
2017-Feb-20 15:09S 29°32' E 031°37'1016.3
2017-Feb-20 14:33S 29°39' E 031°29'1616.3
2017-Feb-20 13:34S 29°50' E 031°15'11 9.3
2017-Feb-20 12:19S 29°52' E 031°02'0 0.0
2017-Feb-20 11:31S 29°52' E 031°02'0 0.0
2017-Feb-20 10:28S 29°52' E 031°02'0 0.0
2017-Feb-20 09:31S 29°52' E 031°02'0 0.0
2017-Feb-20 08:31S 29°52' E 031°02'0 0.0
2017-Feb-20 07:19S 29°52' E 031°02'0 0.0
2017-Feb-20 06:31S 29°52' E 031°02'0 0.0
2017-Feb-20 05:19S 29°52' E 031°02'0 0.0
2017-Feb-20 04:31S 29°52' E 031°02'0 0.0
2017-Feb-20 03:31S 29°52' E 031°02'3 3.5
2017-Feb-20 02:33S 29°50' E 031°05'9 9.3
2017-Feb-20 01:33S 29°49' E 031°16'1010.3
2017-Feb-20 00:33S 29°43' E 031°25'1312.5
2017-Feb-19 23:33S 29°34' E 031°35'  
2017-Feb-17 15:33S 29°22' E 031°49'1616.3
2017-Feb-17 14:33S 29°34' E 031°35'1716.8
2017-Feb-17 13:33S 29°46' E 031°22'1716.6
2017-Feb-17 12:33S 29°52' E 031°04'2 1.4
2017-Feb-17 11:29S 29°52' E 031°02'0 0.0
2017-Feb-17 10:29S 29°52' E 031°02'0 0.0
2017-Feb-17 09:32S 29°52' E 031°02'0 0.0
2017-Feb-17 08:32S 29°52' E 031°02'0 0.0
2017-Feb-17 07:32S 29°52' E 031°02'0 0.0
2017-Feb-17 06:32S 29°52' E 031°02'0 0.0
2017-Feb-17 05:32S 29°52' E 031°02'0 0.0
2017-Feb-17 04:29S 29°52' E 031°02'0 0.0
2017-Feb-17 03:32S 29°52' E 031°02'3 3.2
2017-Feb-17 02:33S 29°50' E 031°05'8 7.7
2017-Feb-17 01:33S 29°49' E 031°14'8 7.8
2017-Feb-17 00:33S 29°46' E 031°22'6 6.3
2017-Feb-16 23:33S 29°41' E 031°27'7 6.5
2017-Feb-16 22:33S 29°37' E 031°32'8 7.7
2017-Feb-16 21:33S 29°31' E 031°39'8 7.7
2017-Feb-16 20:33S 29°25' E 031°45'11 8.8
2017-Feb-16 19:20S 29°18' E 031°53'5 1.1
2017-Feb-16 14:29S 29°14' E 031°49'3 2.0
2017-Feb-16 13:12S 29°14' E 031°52'  
Track history (hours):
 
Tides and Currents Weather Stations Pressure Air Temp Water Temp Dewpoint Dewpoint Depression Visibility Wind Speed Wind Dir Waves Ship Positions

MSC Sinfonia

Last reported at 2017-Feb-24 07:32 UTC. Time now 2017-Feb-24 08:20 UTC.
Position S 29°52' E 031°02'.

Length 251 m; draft 6.8 m.

Type: Passenger vessel. MMSI: 356715971.

Date/timePositionNaut miles runAvg speedWind from/ knotsBaromVisibWave heightAir tempDewpointWater temp
2017-Feb-24 07:32S 29°52' E 031°02'0 0.0
2017-Feb-24 06:32S 29°52' E 031°02'0 0.0
2017-Feb-24 05:32S 29°52' E 031°02'0 0.0
2017-Feb-24 04:32S 29°52' E 031°02'0 0.0
2017-Feb-24 03:32S 29°52' E 031°02'3 3.1
2017-Feb-24 02:34S 29°51' E 031°05'10 9.5
2017-Feb-24 01:34S 29°48' E 031°16'1111.2
2017-Feb-24 00:34S 29°42' E 031°26'1312.9
2017-Feb-23 23:34S 29°33' E 031°36'1312.7
2017-Feb-23 22:33S 29°24' E 031°47'  
2017-Feb-20 15:09S 29°32' E 031°37'1016.3
2017-Feb-20 14:33S 29°39' E 031°29'1616.3
2017-Feb-20 13:34S 29°50' E 031°15'11 9.3
2017-Feb-20 12:19S 29°52' E 031°02'0 0.0
2017-Feb-20 11:31S 29°52' E 031°02'0 0.0
2017-Feb-20 10:28S 29°52' E 031°02'0 0.0
2017-Feb-20 09:31S 29°52' E 031°02'0 0.0
2017-Feb-20 08:31S 29°52' E 031°02'0 0.0
2017-Feb-20 07:19S 29°52' E 031°02'0 0.0
2017-Feb-20 06:31S 29°52' E 031°02'0 0.0
2017-Feb-20 05:19S 29°52' E 031°02'0 0.0
2017-Feb-20 04:31S 29°52' E 031°02'0 0.0
2017-Feb-20 03:31S 29°52' E 031°02'3 3.5
2017-Feb-20 02:33S 29°50' E 031°05'9 9.3
2017-Feb-20 01:33S 29°49' E 031°16'1010.3
2017-Feb-20 00:33S 29°43' E 031°25'1312.5
2017-Feb-19 23:33S 29°34' E 031°35'  
2017-Feb-17 15:33S 29°22' E 031°49'1616.3
2017-Feb-17 14:33S 29°34' E 031°35'1716.8
2017-Feb-17 13:33S 29°46' E 031°22'1716.6
2017-Feb-17 12:33S 29°52' E 031°04'2 1.4
2017-Feb-17 11:29S 29°52' E 031°02'0 0.0
2017-Feb-17 10:29S 29°52' E 031°02'0 0.0
2017-Feb-17 09:32S 29°52' E 031°02'0 0.0
2017-Feb-17 08:32S 29°52' E 031°02'0 0.0
2017-Feb-17 07:32S 29°52' E 031°02'0 0.0
2017-Feb-17 06:32S 29°52' E 031°02'0 0.0
2017-Feb-17 05:32S 29°52' E 031°02'0 0.0
2017-Feb-17 04:29S 29°52' E 031°02'0 0.0
2017-Feb-17 03:32S 29°52' E 031°02'3 3.2
2017-Feb-17 02:33S 29°50' E 031°05'8 7.7
2017-Feb-17 01:33S 29°49' E 031°14'8 7.8
2017-Feb-17 00:33S 29°46' E 031°22'6 6.3
2017-Feb-16 23:33S 29°41' E 031°27'7 6.5
2017-Feb-16 22:33S 29°37' E 031°32'8 7.7
2017-Feb-16 21:33S 29°31' E 031°39'8 7.7
2017-Feb-16 20:33S 29°25' E 031°45'11 8.8
2017-Feb-16 19:20S 29°18' E 031°53'5 1.1
2017-Feb-16 14:29S 29°14' E 031°49'3 2.0
2017-Feb-16 13:12S 29°14' E 031°52'  

Dump ship's entire track history